METAR Data
IDs: Format: Raw Decoded Include TAF

Data at: 1600 UTC 18 Feb 2019

METAR for:KDEH (Decorah Muni, IA, US)
Text:KDEH 181555Z AUTO VRB04KT 10SM CLR M10/M11 A3035 RMK AO2
Temperature:-10.0°C ( 14°F)
Dewpoint:-11.0°C ( 12°F) [RH = 92%]
Pressure (altimeter):30.35 inches Hg (1027.9 mb)
Winds:variable direction winds at 5 MPH (4 knots; 2.1 m/s)
Visibility:10 or more sm (16+ km)
Ceiling:at least 12,000 feet AGL
Clouds:sky clear below 12,000 feet AGL
QC Flag:automated observation with no human augmentation